Terminal Aerodrome Forecast
Issued by NWS Albany, NY

Home | Current Version | Previous Version | Text Only | Print | Product List | Glossary On
Versions: 1 2 3 4 5 6 7 8 9 10 11 12 13 14 15 16 17 18 19 20 21
000
FTUS41 KALY 291733
TAFPOU
TAF
KPOU 291733Z 2918/3018 VRB05KT P6SM SKC
     FM300000 00000KT P6SM SKC
     FM300800 VRB02KT 5SM BR BKN040
     FM301500 20009KT P6SM BKN100=

USA.gov is the U.S. government's official web portal to all federal, state and local government web resources and services.